»·PEaware :: JBU727 KBOS-CYYZ

JBU727 :: KBOS-CYYZ

FLIGHT INFORMATION

Flight Status: Arrived
Operator:
JetBlue Airways
More flights by this operator :: More flights under this callsign
Pilot: Anonymous 5323 (5323)
Aircraft: BOEING 727-200
(B722)
More flights by this aircraft type
Origin: KBOS Logan Intl
United States
Destination: CYYZ Toronto/Pearson Intl
Canada
More flights between these airports :: More routes between these airports
Route: BOS ALB SYR YYZ
File this flight plan on PilotEdge
Remarks:
Altitude:
(Current/Filed)
26,000ft
Speed:
(Current/Filed)
480kts
Departed: 08-Jul-15 02:35 PM
Arrived: 08-Jul-15 03:39 PM
Distance/Time
Traveled:
386nm/1:04
Distance/Time
To Go:
Arrived

Flight Plot

Page will automatically refresh every two minutes.


Map Options




Map Legend


Flown Route
Filed Route
Departure Airport
Arrival Airport
Navaid (VOR, NDB)
Fix

Horizontal Profiles

Position Reports

Time Latitude Longitude Heading Altitude Ground
Speed
08-Jul-15 14:19 42.364817 -71.023205 82 31ft 0kts
08-Jul-15 14:20 42.364817 -71.023205 82 31ft 0kts
08-Jul-15 14:21 42.364817 -71.023205 82 31ft 0kts
08-Jul-15 14:22 42.364801 -71.023371 82 31ft 3kts
08-Jul-15 14:23 42.364843 -71.023857 142 31ft 0kts
08-Jul-15 14:24 42.364843 -71.023857 142 31ft 0kts
08-Jul-15 14:25 42.364843 -71.023857 142 31ft 0kts
08-Jul-15 14:26 42.362693 -71.023467 184 31ft 10kts
08-Jul-15 14:27 42.359588 -71.020940 120 31ft 14kts
08-Jul-15 14:28 42.358781 -71.016532 25 31ft 13kts
08-Jul-15 14:29 42.362413 -71.014801 19 31ft 13kts
08-Jul-15 14:30 42.366167 -71.012817 22 31ft 19kts
08-Jul-15 14:31 42.370133 -71.010929 27 31ft 17kts
08-Jul-15 14:32 42.374390 -71.008359 18 31ft 17kts
08-Jul-15 14:33 42.378010 -71.006639 27 31ft 13kts
08-Jul-15 14:34 42.368474 -71.009281 199 31ft 131kts
08-Jul-15 14:35 42.348805 -71.051421 320 1358ft 217kts
08-Jul-15 14:36 42.376650 -71.127728 279 4179ft 245kts
08-Jul-15 14:37 42.388329 -71.219680 281 7175ft 258kts
08-Jul-15 14:38 42.400833 -71.315368 282 10009ft 264kts
08-Jul-15 14:39 42.414429 -71.418471 282 11171ft 324kts
08-Jul-15 14:40 42.430064 -71.538387 282 13246ft 348kts
08-Jul-15 14:41 42.444080 -71.646361 281 15254ft 355kts
08-Jul-15 14:42 42.461207 -71.779770 281 17352ft 365kts
08-Jul-15 14:43 42.478542 -71.916309 281 19172ft 376kts
08-Jul-15 14:44 42.495925 -72.054289 281 20791ft 386kts
08-Jul-15 14:45 42.512914 -72.191883 280 22273ft 393kts
08-Jul-15 14:46 42.530917 -72.338334 280 23620ft 403kts
08-Jul-15 14:47 42.549104 -72.487446 280 24746ft 414kts
08-Jul-15 14:48 42.568235 -72.634853 280 25939ft 419kts
08-Jul-15 14:49 42.587550 -72.795520 279 26027ft 453kts
08-Jul-15 14:50 42.605018 -72.970262 274 26054ft 484kts
08-Jul-15 14:51 42.631893 -73.150620 283 26059ft 509kts
08-Jul-15 14:52 42.665022 -73.336184 283 26056ft 516kts
08-Jul-15 14:53 42.698726 -73.525423 284 26056ft 518kts
08-Jul-15 14:54 42.731536 -73.711482 285 26042ft 517kts
08-Jul-15 14:55 42.765238 -73.895219 286 26044ft 514kts
08-Jul-15 14:56 42.800689 -74.078945 285 26045ft 511kts
08-Jul-15 14:57 42.835311 -74.262429 284 26050ft 510kts
08-Jul-15 14:58 42.869969 -74.446445 284 26051ft 509kts
08-Jul-15 14:59 42.904586 -74.631972 284 26049ft 509kts
08-Jul-15 15:00 42.937924 -74.812582 283 26087ft 507kts
08-Jul-15 15:01 42.971206 -74.994937 283 26107ft 505kts
08-Jul-15 15:02 43.001216 -75.174194 271 26061ft 502kts
08-Jul-15 15:03 43.030308 -75.356192 282 26122ft 499kts
08-Jul-15 15:04 43.060190 -75.539808 280 26110ft 501kts
08-Jul-15 15:05 43.088158 -75.722352 280 26109ft 502kts
08-Jul-15 15:06 43.115684 -75.904155 282 26111ft 503kts
08-Jul-15 15:07 43.142325 -76.082059 282 26109ft 505kts
08-Jul-15 15:08 43.168369 -76.259615 281 26115ft 505kts
08-Jul-15 15:09 43.195815 -76.447245 282 26119ft 506kts
08-Jul-15 15:10 43.223188 -76.636690 282 26120ft 508kts
08-Jul-15 15:11 43.250359 -76.827060 281 26119ft 508kts
08-Jul-15 15:12 43.276743 -77.014461 282 26130ft 508kts
08-Jul-15 15:13 43.301908 -77.196579 281 26134ft 511kts
08-Jul-15 15:14 43.327890 -77.385769 280 26153ft 520kts
08-Jul-15 15:15 43.354498 -77.581978 280 26152ft 527kts
08-Jul-15 15:16 43.381156 -77.781241 280 26151ft 531kts
08-Jul-15 15:17 43.406849 -77.975511 280 26133ft 512kts
08-Jul-15 15:18 43.429596 -78.152001 280 24877ft 472kts
08-Jul-15 15:19 43.451996 -78.325539 280 22575ft 457kts
08-Jul-15 15:20 43.473499 -78.493946 278 20487ft 439kts
08-Jul-15 15:21 43.493793 -78.655614 278 18536ft 420kts
08-Jul-15 15:22 43.521775 -78.808189 283 16307ft 409kts
08-Jul-15 15:23 43.548162 -78.958794 283 14072ft 402kts
08-Jul-15 15:24 43.572595 -79.101553 281 12339ft 364kts
08-Jul-15 15:25 43.591965 -79.220379 281 9382ft 284kts
08-Jul-15 15:26 43.609299 -79.326952 281 7792ft 279kts
08-Jul-15 15:27 43.626020 -79.430324 281 6436ft 274kts
08-Jul-15 15:28 43.668120 -79.513061 319 4963ft 276kts
08-Jul-15 15:29 43.726445 -79.579649 319 3688ft 272kts
08-Jul-15 15:30 43.782562 -79.644798 319 2981ft 250kts
08-Jul-15 15:31 43.832260 -79.703089 319 2982ft 219kts
08-Jul-15 15:32 43.863380 -79.759486 244 2984ft 175kts
08-Jul-15 15:33 43.825462 -79.804355 174 2993ft 185kts
08-Jul-15 15:34 43.785737 -79.763441 137 2996ft 187kts
08-Jul-15 15:35 43.753744 -79.722076 137 2216ft 141kts
08-Jul-15 15:36 43.725276 -79.685127 137 1466ft 142kts
08-Jul-15 15:37 43.697349 -79.649098 137 720ft 135kts
08-Jul-15 15:38 43.681032 -79.627892 126 579ft 15kts
08-Jul-15 15:39 43.682713 -79.624023 60 579ft 12kts
08-Jul-15 15:40 43.683538 -79.620768 108 579ft 4kts
08-Jul-15 15:41 43.683520 -79.620689 108 579ft 0kts
08-Jul-15 15:42 43.683520 -79.620689 108 579ft 0kts
08-Jul-15 15:43 43.683520 -79.620689 108 579ft 0kts
08-Jul-15 15:44 43.683520 -79.620689 108 579ft 0kts
08-Jul-15 15:45 43.683520 -79.620689 108 579ft 0kts
08-Jul-15 15:46 43.683520 -79.620689 108 579ft 0kts
08-Jul-15 15:47 43.683520 -79.620689 108 579ft 0kts
08-Jul-15 15:48 43.683520 -79.620689 108 579ft 0kts
08-Jul-15 15:49 43.683520 -79.620689 108 579ft 0kts

Navigation Log

Ident Type
Flight plan parsing failed, navigation log unavailable